sensor_id;sensor_type;location;lat;lon;timestamp;temperature;humidity
15930;DHT22;8064;51.142;4.780;2023-04-08T00:01:52;10.00;99.90
15930;DHT22;8064;51.142;4.780;2023-04-08T00:04:19;10.00;99.90
15930;DHT22;8064;51.142;4.780;2023-04-08T00:06:44;10.00;99.90
15930;DHT22;8064;51.142;4.780;2023-04-08T00:09:10;10.00;99.90
15930;DHT22;8064;51.142;4.780;2023-04-08T00:11:36;10.00;99.90
15930;DHT22;8064;51.142;4.780;2023-04-08T00:14:03;10.00;99.90
15930;DHT22;8064;51.142;4.780;2023-04-08T00:16:29;10.10;99.90
15930;DHT22;8064;51.142;4.780;2023-04-08T00:18:54;10.00;99.90
15930;DHT22;8064;51.142;4.780;2023-04-08T00:21:21;10.00;99.90
15930;DHT22;8064;51.142;4.780;2023-04-08T00:23:48;10.00;99.90
15930;DHT22;8064;51.142;4.780;2023-04-08T00:26:14;10.00;99.90
15930;DHT22;8064;51.142;4.780;2023-04-08T00:28:40;10.00;99.90
15930;DHT22;8064;51.142;4.780;2023-04-08T00:31:07;10.00;99.90
15930;DHT22;8064;51.142;4.780;2023-04-08T00:33:33;10.00;99.90
15930;DHT22;8064;51.142;4.780;2023-04-08T00:35:59;10.00;99.90
15930;DHT22;8064;51.142;4.780;2023-04-08T00:38:25;10.00;99.90
15930;DHT22;8064;51.142;4.780;2023-04-08T00:40:51;9.90;99.90
15930;DHT22;8064;51.142;4.780;2023-04-08T00:43:17;9.90;99.90
15930;DHT22;8064;51.142;4.780;2023-04-08T00:45:45;9.90;99.90
15930;DHT22;8064;51.142;4.780;2023-04-08T00:48:12;9.90;99.90
15930;DHT22;8064;51.142;4.780;2023-04-08T00:50:37;10.00;99.90
15930;DHT22;8064;51.142;4.780;2023-04-08T00:53:03;9.90;99.90
15930;DHT22;8064;51.142;4.780;2023-04-08T00:55:29;9.90;99.90
15930;DHT22;8064;51.142;4.780;2023-04-08T00:57:55;9.90;99.90
15930;DHT22;8064;51.142;4.780;2023-04-08T01:00:22;9.90;99.90
15930;DHT22;8064;51.142;4.780;2023-04-08T01:03:07;9.90;99.90
15930;DHT22;8064;51.142;4.780;2023-04-08T01:08:39;9.90;99.90
15930;DHT22;8064;51.142;4.780;2023-04-08T01:11:09;9.90;99.90
15930;DHT22;8064;51.142;4.780;2023-04-08T01:13:39;9.90;99.90
15930;DHT22;8064;51.142;4.780;2023-04-08T01:16:09;9.90;99.90
15930;DHT22;8064;51.142;4.780;2023-04-08T01:18:37;9.90;99.90
15930;DHT22;8064;51.142;4.780;2023-04-08T01:21:05;9.90;99.90
15930;DHT22;8064;51.142;4.780;2023-04-08T01:23:39;9.90;99.90
15930;DHT22;8064;51.142;4.780;2023-04-08T01:26:10;9.90;99.90
15930;DHT22;8064;51.142;4.780;2023-04-08T01:28:37;9.90;99.90
15930;DHT22;8064;51.142;4.780;2023-04-08T01:31:04;9.90;99.90
15930;DHT22;8064;51.142;4.780;2023-04-08T01:33:30;9.90;99.90
15930;DHT22;8064;51.142;4.780;2023-04-08T01:35:58;9.90;99.90
15930;DHT22;8064;51.142;4.780;2023-04-08T01:38:25;9.90;99.90
15930;DHT22;8064;51.142;4.780;2023-04-08T01:40:52;9.90;99.90
15930;DHT22;8064;51.142;4.780;2023-04-08T01:43:20;9.90;99.90
15930;DHT22;8064;51.142;4.780;2023-04-08T01:45:47;9.90;99.90
15930;DHT22;8064;51.142;4.780;2023-04-08T01:48:14;9.90;99.90
15930;DHT22;8064;51.142;4.780;2023-04-08T01:50:42;9.90;99.90
15930;DHT22;8064;51.142;4.780;2023-04-08T01:53:09;9.80;99.90
15930;DHT22;8064;51.142;4.780;2023-04-08T01:55:38;9.90;99.90
15930;DHT22;8064;51.142;4.780;2023-04-08T01:58:06;9.80;99.90
15930;DHT22;8064;51.142;4.780;2023-04-08T02:00:33;9.80;99.90
15930;DHT22;8064;51.142;4.780;2023-04-08T02:03:01;9.80;99.90
15930;DHT22;8064;51.142;4.780;2023-04-08T02:05:29;9.90;99.90
15930;DHT22;8064;51.142;4.780;2023-04-08T02:07:55;9.80;99.90
15930;DHT22;8064;51.142;4.780;2023-04-08T02:10:21;9.80;99.90
15930;DHT22;8064;51.142;4.780;2023-04-08T02:12:47;9.80;99.90
15930;DHT22;8064;51.142;4.780;2023-04-08T02:15:13;9.80;99.90
15930;DHT22;8064;51.142;4.780;2023-04-08T02:17:55;9.80;99.90
15930;DHT22;8064;51.142;4.780;2023-04-08T02:20:30;9.80;99.90
15930;DHT22;8064;51.142;4.780;2023-04-08T02:23:13;9.80;99.90
15930;DHT22;8064;51.142;4.780;2023-04-08T02:25:43;9.80;99.90
15930;DHT22;8064;51.142;4.780;2023-04-08T02:28:10;9.70;99.90
15930;DHT22;8064;51.142;4.780;2023-04-08T02:30:41;9.80;99.90
15930;DHT22;8064;51.142;4.780;2023-04-08T02:33:07;9.80;99.90
15930;DHT22;8064;51.142;4.780;2023-04-08T02:35:35;9.80;99.90
15930;DHT22;8064;51.142;4.780;2023-04-08T02:38:01;9.80;99.90
15930;DHT22;8064;51.142;4.780;2023-04-08T02:40:28;9.70;99.90
15930;DHT22;8064;51.142;4.780;2023-04-08T02:42:55;9.80;99.90
15930;DHT22;8064;51.142;4.780;2023-04-08T02:45:21;9.70;99.90
15930;DHT22;8064;51.142;4.780;2023-04-08T02:47:47;9.70;99.90
15930;DHT22;8064;51.142;4.780;2023-04-08T02:50:13;9.80;99.90
15930;DHT22;8064;51.142;4.780;2023-04-08T02:52:39;9.70;99.90
15930;DHT22;8064;51.142;4.780;2023-04-08T02:55:05;9.80;99.90
15930;DHT22;8064;51.142;4.780;2023-04-08T02:57:35;9.70;99.90
15930;DHT22;8064;51.142;4.780;2023-04-08T03:00:03;9.70;99.90
15930;DHT22;8064;51.142;4.780;2023-04-08T03:02:29;9.80;99.90
15930;DHT22;8064;51.142;4.780;2023-04-08T03:04:55;9.80;99.90
15930;DHT22;8064;51.142;4.780;2023-04-08T03:07:20;9.80;99.90
15930;DHT22;8064;51.142;4.780;2023-04-08T03:09:46;9.80;99.90
15930;DHT22;8064;51.142;4.780;2023-04-08T03:12:12;9.70;99.90
15930;DHT22;8064;51.142;4.780;2023-04-08T03:14:38;9.80;99.90
15930;DHT22;8064;51.142;4.780;2023-04-08T03:17:04;9.70;99.90
15930;DHT22;8064;51.142;4.780;2023-04-08T03:19:29;9.70;99.90
15930;DHT22;8064;51.142;4.780;2023-04-08T03:21:55;9.80;99.90
15930;DHT22;8064;51.142;4.780;2023-04-08T03:24:21;9.70;99.90
15930;DHT22;8064;51.142;4.780;2023-04-08T03:26:46;9.80;99.90
15930;DHT22;8064;51.142;4.780;2023-04-08T03:29:12;9.80;99.90
15930;DHT22;8064;51.142;4.780;2023-04-08T03:31:38;9.70;99.90
15930;DHT22;8064;51.142;4.780;2023-04-08T03:34:04;9.70;99.90
15930;DHT22;8064;51.142;4.780;2023-04-08T03:36:29;9.70;99.90
15930;DHT22;8064;51.142;4.780;2023-04-08T03:38:55;9.70;99.90
15930;DHT22;8064;51.142;4.780;2023-04-08T03:41:21;9.70;99.90
15930;DHT22;8064;51.142;4.780;2023-04-08T03:43:47;9.80;99.90
15930;DHT22;8064;51.142;4.780;2023-04-08T03:46:12;9.70;99.90
15930;DHT22;8064;51.142;4.780;2023-04-08T03:48:38;9.70;99.90
15930;DHT22;8064;51.142;4.780;2023-04-08T03:51:04;9.70;99.90
15930;DHT22;8064;51.142;4.780;2023-04-08T03:53:30;9.70;99.90
15930;DHT22;8064;51.142;4.780;2023-04-08T03:55:56;9.70;99.90
15930;DHT22;8064;51.142;4.780;2023-04-08T03:58:22;9.70;99.90
15930;DHT22;8064;51.142;4.780;2023-04-08T04:00:48;9.70;99.90
15930;DHT22;8064;51.142;4.780;2023-04-08T04:03:14;9.80;99.90
15930;DHT22;8064;51.142;4.780;2023-04-08T04:05:40;9.80;99.90
15930;DHT22;8064;51.142;4.780;2023-04-08T04:08:05;9.70;99.90
15930;DHT22;8064;51.142;4.780;2023-04-08T04:10:31;9.70;99.90
15930;DHT22;8064;51.142;4.780;2023-04-08T04:12:57;9.70;99.90
15930;DHT22;8064;51.142;4.780;2023-04-08T04:15:23;9.70;99.90
15930;DHT22;8064;51.142;4.780;2023-04-08T04:17:50;9.70;99.90
15930;DHT22;8064;51.142;4.780;2023-04-08T04:20:16;9.70;99.90
15930;DHT22;8064;51.142;4.780;2023-04-08T04:22:42;9.70;99.90
15930;DHT22;8064;51.142;4.780;2023-04-08T04:25:08;9.70;99.90
15930;DHT22;8064;51.142;4.780;2023-04-08T04:27:34;9.70;99.90
15930;DHT22;8064;51.142;4.780;2023-04-08T04:30:01;9.70;99.90
15930;DHT22;8064;51.142;4.780;2023-04-08T04:32:27;9.70;99.90
15930;DHT22;8064;51.142;4.780;2023-04-08T04:34:53;9.70;99.90
15930;DHT22;8064;51.142;4.780;2023-04-08T04:37:19;9.70;99.90
15930;DHT22;8064;51.142;4.780;2023-04-08T04:39:45;9.70;99.90
15930;DHT22;8064;51.142;4.780;2023-04-08T04:42:11;9.70;99.90
15930;DHT22;8064;51.142;4.780;2023-04-08T04:44:36;9.70;99.90
15930;DHT22;8064;51.142;4.780;2023-04-08T04:47:02;9.70;99.90
15930;DHT22;8064;51.142;4.780;2023-04-08T04:49:28;9.70;99.90
15930;DHT22;8064;51.142;4.780;2023-04-08T04:51:54;9.70;99.90
15930;DHT22;8064;51.142;4.780;2023-04-08T04:54:20;9.70;99.90
15930;DHT22;8064;51.142;4.780;2023-04-08T04:56:45;9.60;99.90
15930;DHT22;8064;51.142;4.780;2023-04-08T04:59:11;9.60;99.90
15930;DHT22;8064;51.142;4.780;2023-04-08T05:01:37;9.60;99.90
15930;DHT22;8064;51.142;4.780;2023-04-08T05:04:06;9.50;99.90
15930;DHT22;8064;51.142;4.780;2023-04-08T05:06:32;9.40;99.90
15930;DHT22;8064;51.142;4.780;2023-04-08T05:08:58;9.40;99.90
15930;DHT22;8064;51.142;4.780;2023-04-08T05:11:23;9.40;99.90
15930;DHT22;8064;51.142;4.780;2023-04-08T05:13:49;9.40;99.90
15930;DHT22;8064;51.142;4.780;2023-04-08T05:16:15;9.40;99.90
15930;DHT22;8064;51.142;4.780;2023-04-08T05:18:41;9.40;99.90
15930;DHT22;8064;51.142;4.780;2023-04-08T05:21:07;9.40;99.90
15930;DHT22;8064;51.142;4.780;2023-04-08T05:23:34;9.40;99.90
15930;DHT22;8064;51.142;4.780;2023-04-08T05:26:00;9.40;99.90
15930;DHT22;8064;51.142;4.780;2023-04-08T05:28:26;9.50;99.90
15930;DHT22;8064;51.142;4.780;2023-04-08T05:30:52;9.50;99.90
15930;DHT22;8064;51.142;4.780;2023-04-08T05:33:19;9.50;99.90
15930;DHT22;8064;51.142;4.780;2023-04-08T05:35:45;9.60;99.90
15930;DHT22;8064;51.142;4.780;2023-04-08T05:38:11;9.60;99.90
15930;DHT22;8064;51.142;4.780;2023-04-08T05:40:36;9.60;99.90
15930;DHT22;8064;51.142;4.780;2023-04-08T05:43:02;9.60;99.90
15930;DHT22;8064;51.142;4.780;2023-04-08T05:45:29;9.60;99.90
15930;DHT22;8064;51.142;4.780;2023-04-08T05:47:55;9.60;99.90
15930;DHT22;8064;51.142;4.780;2023-04-08T05:50:21;9.70;99.90
15930;DHT22;8064;51.142;4.780;2023-04-08T05:52:46;9.70;99.90
15930;DHT22;8064;51.142;4.780;2023-04-08T05:55:13;9.80;99.90
15930;DHT22;8064;51.142;4.780;2023-04-08T05:57:39;9.80;99.90
15930;DHT22;8064;51.142;4.780;2023-04-08T06:00:06;9.90;99.90
15930;DHT22;8064;51.142;4.780;2023-04-08T06:02:33;10.00;99.90
15930;DHT22;8064;51.142;4.780;2023-04-08T06:05:00;10.00;99.90
15930;DHT22;8064;51.142;4.780;2023-04-08T06:07:25;10.10;99.90
15930;DHT22;8064;51.142;4.780;2023-04-08T06:09:51;10.10;99.90
15930;DHT22;8064;51.142;4.780;2023-04-08T06:12:17;10.10;99.90
15930;DHT22;8064;51.142;4.780;2023-04-08T06:14:43;10.20;99.90
15930;DHT22;8064;51.142;4.780;2023-04-08T06:17:08;10.20;99.90
15930;DHT22;8064;51.142;4.780;2023-04-08T06:19:34;10.30;99.90
15930;DHT22;8064;51.142;4.780;2023-04-08T06:22:00;10.30;99.90
15930;DHT22;8064;51.142;4.780;2023-04-08T06:24:27;10.30;99.90
15930;DHT22;8064;51.142;4.780;2023-04-08T06:26:54;10.40;99.90
15930;DHT22;8064;51.142;4.780;2023-04-08T06:29:21;10.50;99.90
15930;DHT22;8064;51.142;4.780;2023-04-08T06:31:48;10.60;99.90
15930;DHT22;8064;51.142;4.780;2023-04-08T06:34:14;10.60;99.90
15930;DHT22;8064;51.142;4.780;2023-04-08T06:36:39;10.70;99.90
15930;DHT22;8064;51.142;4.780;2023-04-08T06:39:06;10.70;99.90
15930;DHT22;8064;51.142;4.780;2023-04-08T06:41:31;10.80;99.90
15930;DHT22;8064;51.142;4.780;2023-04-08T06:43:57;10.80;99.90
15930;DHT22;8064;51.142;4.780;2023-04-08T06:46:23;10.90;99.90
15930;DHT22;8064;51.142;4.780;2023-04-08T06:48:50;10.90;99.90
15930;DHT22;8064;51.142;4.780;2023-04-08T06:51:15;11.00;99.90
15930;DHT22;8064;51.142;4.780;2023-04-08T06:53:41;11.00;99.90
15930;DHT22;8064;51.142;4.780;2023-04-08T06:56:07;11.10;99.90
15930;DHT22;8064;51.142;4.780;2023-04-08T06:58:33;11.10;99.90
15930;DHT22;8064;51.142;4.780;2023-04-08T07:00:59;11.20;99.90
15930;DHT22;8064;51.142;4.780;2023-04-08T07:03:25;11.20;99.90
15930;DHT22;8064;51.142;4.780;2023-04-08T07:05:52;11.20;99.90
15930;DHT22;8064;51.142;4.780;2023-04-08T07:08:17;11.30;99.90
15930;DHT22;8064;51.142;4.780;2023-04-08T07:10:43;11.30;99.90
15930;DHT22;8064;51.142;4.780;2023-04-08T07:13:09;11.40;99.90
15930;DHT22;8064;51.142;4.780;2023-04-08T07:15:35;11.40;99.90
15930;DHT22;8064;51.142;4.780;2023-04-08T07:18:01;11.50;99.90
15930;DHT22;8064;51.142;4.780;2023-04-08T07:20:29;11.60;99.90
15930;DHT22;8064;51.142;4.780;2023-04-08T07:22:55;11.60;99.90
15930;DHT22;8064;51.142;4.780;2023-04-08T07:25:21;11.60;99.90
15930;DHT22;8064;51.142;4.780;2023-04-08T07:27:46;11.60;99.90
15930;DHT22;8064;51.142;4.780;2023-04-08T07:30:12;11.60;99.90
15930;DHT22;8064;51.142;4.780;2023-04-08T07:32:38;11.60;99.90
15930;DHT22;8064;51.142;4.780;2023-04-08T07:35:04;11.60;99.90
15930;DHT22;8064;51.142;4.780;2023-04-08T07:37:30;11.60;99.90
15930;DHT22;8064;51.142;4.780;2023-04-08T07:39:56;11.60;99.90
15930;DHT22;8064;51.142;4.780;2023-04-08T07:42:22;11.60;99.90
15930;DHT22;8064;51.142;4.780;2023-04-08T07:44:48;11.70;99.90
15930;DHT22;8064;51.142;4.780;2023-04-08T07:47:14;11.70;99.90
15930;DHT22;8064;51.142;4.780;2023-04-08T07:49:39;11.70;99.90
15930;DHT22;8064;51.142;4.780;2023-04-08T07:52:06;11.80;99.90
15930;DHT22;8064;51.142;4.780;2023-04-08T07:54:32;11.80;99.90
15930;DHT22;8064;51.142;4.780;2023-04-08T07:56:59;11.80;99.90
15930;DHT22;8064;51.142;4.780;2023-04-08T07:59:26;11.90;99.90
15930;DHT22;8064;51.142;4.780;2023-04-08T08:01:51;11.90;99.90
15930;DHT22;8064;51.142;4.780;2023-04-08T08:04:17;12.00;99.90
15930;DHT22;8064;51.142;4.780;2023-04-08T08:06:43;12.10;99.90
15930;DHT22;8064;51.142;4.780;2023-04-08T08:09:09;12.10;99.90
15930;DHT22;8064;51.142;4.780;2023-04-08T08:11:35;12.20;99.90
15930;DHT22;8064;51.142;4.780;2023-04-08T08:14:00;12.20;99.90
15930;DHT22;8064;51.142;4.780;2023-04-08T08:16:28;12.30;99.90
15930;DHT22;8064;51.142;4.780;2023-04-08T08:18:54;12.30;99.90
15930;DHT22;8064;51.142;4.780;2023-04-08T08:21:20;12.40;99.90
15930;DHT22;8064;51.142;4.780;2023-04-08T08:23:45;12.40;99.90
15930;DHT22;8064;51.142;4.780;2023-04-08T08:26:11;12.50;99.90
15930;DHT22;8064;51.142;4.780;2023-04-08T08:28:39;12.50;99.90
15930;DHT22;8064;51.142;4.780;2023-04-08T08:31:05;12.60;99.90
15930;DHT22;8064;51.142;4.780;2023-04-08T08:33:31;12.70;99.90
15930;DHT22;8064;51.142;4.780;2023-04-08T08:35:57;12.70;99.90
15930;DHT22;8064;51.142;4.780;2023-04-08T08:38:24;12.80;99.90
15930;DHT22;8064;51.142;4.780;2023-04-08T08:41:09;12.80;99.90
15930;DHT22;8064;51.142;4.780;2023-04-08T08:43:35;12.90;99.90
15930;DHT22;8064;51.142;4.780;2023-04-08T08:46:02;12.90;99.90
15930;DHT22;8064;51.142;4.780;2023-04-08T08:48:28;13.00;99.90
15930;DHT22;8064;51.142;4.780;2023-04-08T08:50:54;13.40;99.90
15930;DHT22;8064;51.142;4.780;2023-04-08T08:53:19;13.80;99.90
15930;DHT22;8064;51.142;4.780;2023-04-08T08:55:47;14.10;99.90
15930;DHT22;8064;51.142;4.780;2023-04-08T08:58:14;14.20;99.90
15930;DHT22;8064;51.142;4.780;2023-04-08T09:00:40;14.30;99.90
15930;DHT22;8064;51.142;4.780;2023-04-08T09:03:27;14.20;99.90
15930;DHT22;8064;51.142;4.780;2023-04-08T09:08:40;14.00;99.90
15930;DHT22;8064;51.142;4.780;2023-04-08T09:11:25;13.90;99.90
15930;DHT22;8064;51.142;4.780;2023-04-08T09:13:50;13.90;99.90
15930;DHT22;8064;51.142;4.780;2023-04-08T09:16:18;13.80;99.90
15930;DHT22;8064;51.142;4.780;2023-04-08T09:18:45;13.70;99.90
15930;DHT22;8064;51.142;4.780;2023-04-08T09:21:13;13.70;99.90
15930;DHT22;8064;51.142;4.780;2023-04-08T09:26:26;14.10;99.90
15930;DHT22;8064;51.142;4.780;2023-04-08T09:29:07;14.40;99.90
15930;DHT22;8064;51.142;4.780;2023-04-08T09:31:35;14.90;99.90
15930;DHT22;8064;51.142;4.780;2023-04-08T09:34:12;15.40;99.90
15930;DHT22;8064;51.142;4.780;2023-04-08T09:36:38;15.90;99.90
15930;DHT22;8064;51.142;4.780;2023-04-08T09:39:04;16.10;99.90
15930;DHT22;8064;51.142;4.780;2023-04-08T09:41:34;16.10;99.90
15930;DHT22;8064;51.142;4.780;2023-04-08T09:44:02;16.10;99.90
15930;DHT22;8064;51.142;4.780;2023-04-08T09:49:17;15.80;99.90
15930;DHT22;8064;51.142;4.780;2023-04-08T09:51:52;15.80;99.90
15930;DHT22;8064;51.142;4.780;2023-04-08T09:54:24;15.70;99.90
15930;DHT22;8064;51.142;4.780;2023-04-08T09:57:00;15.80;99.90
15930;DHT22;8064;51.142;4.780;2023-04-08T09:59:30;15.90;99.90
15930;DHT22;8064;51.142;4.780;2023-04-08T10:02:01;16.00;99.90
15930;DHT22;8064;51.142;4.780;2023-04-08T10:04:31;16.10;99.90
15930;DHT22;8064;51.142;4.780;2023-04-08T10:07:05;16.20;99.90
15930;DHT22;8064;51.142;4.780;2023-04-08T10:09:32;16.30;99.90
15930;DHT22;8064;51.142;4.780;2023-04-08T10:11:59;16.70;99.90
15930;DHT22;8064;51.142;4.780;2023-04-08T10:14:25;17.10;99.90
15930;DHT22;8064;51.142;4.780;2023-04-08T10:20:02;17.90;99.90
15930;DHT22;8064;51.142;4.780;2023-04-08T10:27:56;18.30;99.00
15930;DHT22;8064;51.142;4.780;2023-04-08T10:33:00;18.20;98.30
15930;DHT22;8064;51.142;4.780;2023-04-08T10:35:46;18.10;98.40
15930;DHT22;8064;51.142;4.780;2023-04-08T10:38:13;17.90;98.00
15930;DHT22;8064;51.142;4.780;2023-04-08T10:40:40;17.70;98.20
15930;DHT22;8064;51.142;4.780;2023-04-08T10:43:08;17.50;98.30
15930;DHT22;8064;51.142;4.780;2023-04-08T10:45:34;17.30;98.30
15930;DHT22;8064;51.142;4.780;2023-04-08T10:50:38;17.10;98.30
15930;DHT22;8064;51.142;4.780;2023-04-08T10:53:05;17.00;98.30
15930;DHT22;8064;51.142;4.780;2023-04-08T10:55:32;16.90;98.30
15930;DHT22;8064;51.142;4.780;2023-04-08T10:58:17;16.90;98.30
15930;DHT22;8064;51.142;4.780;2023-04-08T11:00:43;17.00;98.10
15930;DHT22;8064;51.142;4.780;2023-04-08T11:03:10;17.20;98.20
15930;DHT22;8064;51.142;4.780;2023-04-08T11:05:37;17.30;98.00
15930;DHT22;8064;51.142;4.780;2023-04-08T11:08:04;17.50;97.90
15930;DHT22;8064;51.142;4.780;2023-04-08T11:10:32;17.80;97.90
15930;DHT22;8064;51.142;4.780;2023-04-08T11:13:01;18.00;97.50
15930;DHT22;8064;51.142;4.780;2023-04-08T11:15:29;18.20;97.10
15930;DHT22;8064;51.142;4.780;2023-04-08T11:17:55;18.40;96.70
15930;DHT22;8064;51.142;4.780;2023-04-08T11:20:21;18.60;96.50
15930;DHT22;8064;51.142;4.780;2023-04-08T11:22:47;18.80;96.00
15930;DHT22;8064;51.142;4.780;2023-04-08T11:25:14;19.00;95.70
15930;DHT22;8064;51.142;4.780;2023-04-08T11:27:40;19.20;95.60
15930;DHT22;8064;51.142;4.780;2023-04-08T11:30:07;19.40;95.30
15930;DHT22;8064;51.142;4.780;2023-04-08T11:32:34;19.50;94.90
15930;DHT22;8064;51.142;4.780;2023-04-08T11:35:03;19.60;94.70
15930;DHT22;8064;51.142;4.780;2023-04-08T11:37:41;19.70;94.60
15930;DHT22;8064;51.142;4.780;2023-04-08T11:40:10;19.60;94.20
15930;DHT22;8064;51.142;4.780;2023-04-08T11:42:36;19.60;94.30
15930;DHT22;8064;51.142;4.780;2023-04-08T11:45:10;19.60;94.10
15930;DHT22;8064;51.142;4.780;2023-04-08T11:47:36;19.60;93.80
15930;DHT22;8064;51.142;4.780;2023-04-08T11:50:02;19.60;93.70
15930;DHT22;8064;51.142;4.780;2023-04-08T11:55:28;19.60;93.20
15930;DHT22;8064;51.142;4.780;2023-04-08T11:57:55;19.50;93.20
15930;DHT22;8064;51.142;4.780;2023-04-08T12:00:22;19.40;93.00
15930;DHT22;8064;51.142;4.780;2023-04-08T12:02:50;19.40;92.70
15930;DHT22;8064;51.142;4.780;2023-04-08T12:05:16;19.40;92.50
15930;DHT22;8064;51.142;4.780;2023-04-08T12:07:43;19.50;92.00
15930;DHT22;8064;51.142;4.780;2023-04-08T12:10:09;19.50;92.20
15930;DHT22;8064;51.142;4.780;2023-04-08T12:12:36;19.50;92.00
15930;DHT22;8064;51.142;4.780;2023-04-08T12:15:02;19.40;91.60
15930;DHT22;8064;51.142;4.780;2023-04-08T12:17:28;19.40;91.40
15930;DHT22;8064;51.142;4.780;2023-04-08T12:19:54;19.40;91.00
15930;DHT22;8064;51.142;4.780;2023-04-08T12:22:20;19.30;90.30
15930;DHT22;8064;51.142;4.780;2023-04-08T12:24:45;19.20;90.00
15930;DHT22;8064;51.142;4.780;2023-04-08T12:27:11;19.10;90.00
15930;DHT22;8064;51.142;4.780;2023-04-08T12:29:37;19.00;89.60
15930;DHT22;8064;51.142;4.780;2023-04-08T12:32:03;18.90;89.00
15930;DHT22;8064;51.142;4.780;2023-04-08T12:34:30;18.80;89.40
15930;DHT22;8064;51.142;4.780;2023-04-08T12:36:56;18.80;89.60
15930;DHT22;8064;51.142;4.780;2023-04-08T12:39:23;18.70;89.50
15930;DHT22;8064;51.142;4.780;2023-04-08T12:41:48;18.70;90.00
15930;DHT22;8064;51.142;4.780;2023-04-08T12:44:14;18.70;90.00
15930;DHT22;8064;51.142;4.780;2023-04-08T12:46:40;18.70;90.00
15930;DHT22;8064;51.142;4.780;2023-04-08T12:49:06;18.70;90.00
15930;DHT22;8064;51.142;4.780;2023-04-08T12:51:32;18.70;90.00
15930;DHT22;8064;51.142;4.780;2023-04-08T12:53:57;18.60;89.40
15930;DHT22;8064;51.142;4.780;2023-04-08T12:56:24;18.60;89.80
15930;DHT22;8064;51.142;4.780;2023-04-08T12:58:50;18.60;90.00
15930;DHT22;8064;51.142;4.780;2023-04-08T13:01:16;18.70;90.00
15930;DHT22;8064;51.142;4.780;2023-04-08T13:03:41;18.70;89.40
15930;DHT22;8064;51.142;4.780;2023-04-08T13:06:07;18.70;88.90
15930;DHT22;8064;51.142;4.780;2023-04-08T13:08:33;18.60;88.80
15930;DHT22;8064;51.142;4.780;2023-04-08T13:10:59;18.60;88.50
15930;DHT22;8064;51.142;4.780;2023-04-08T13:13:25;18.60;88.10
15930;DHT22;8064;51.142;4.780;2023-04-08T13:15:51;18.60;87.80
15930;DHT22;8064;51.142;4.780;2023-04-08T13:18:17;18.60;87.80
15930;DHT22;8064;51.142;4.780;2023-04-08T13:20:43;18.50;88.70
15930;DHT22;8064;51.142;4.780;2023-04-08T13:23:08;18.50;89.60
15930;DHT22;8064;51.142;4.780;2023-04-08T13:25:34;18.40;89.80
15930;DHT22;8064;51.142;4.780;2023-04-08T13:28:00;18.40;90.30
15930;DHT22;8064;51.142;4.780;2023-04-08T13:30:26;18.30;89.70
15930;DHT22;8064;51.142;4.780;2023-04-08T13:32:51;18.30;89.70
15930;DHT22;8064;51.142;4.780;2023-04-08T13:35:17;18.30;89.50
15930;DHT22;8064;51.142;4.780;2023-04-08T13:37:43;18.40;88.90
15930;DHT22;8064;51.142;4.780;2023-04-08T13:40:09;18.50;88.00
15930;DHT22;8064;51.142;4.780;2023-04-08T13:42:35;18.50;87.30
15930;DHT22;8064;51.142;4.780;2023-04-08T13:45:01;18.60;87.00
15930;DHT22;8064;51.142;4.780;2023-04-08T13:47:27;18.70;86.90
15930;DHT22;8064;51.142;4.780;2023-04-08T13:49:53;18.80;86.20
15930;DHT22;8064;51.142;4.780;2023-04-08T13:52:19;18.80;84.80
15930;DHT22;8064;51.142;4.780;2023-04-08T13:54:45;18.70;84.90
15930;DHT22;8064;51.142;4.780;2023-04-08T13:57:12;18.60;84.20
15930;DHT22;8064;51.142;4.780;2023-04-08T13:59:37;18.50;84.50
15930;DHT22;8064;51.142;4.780;2023-04-08T14:02:03;18.40;84.70
15930;DHT22;8064;51.142;4.780;2023-04-08T14:04:29;18.30;84.70
15930;DHT22;8064;51.142;4.780;2023-04-08T14:06:55;18.20;84.50
15930;DHT22;8064;51.142;4.780;2023-04-08T14:09:22;18.00;84.00
15930;DHT22;8064;51.142;4.780;2023-04-08T14:11:48;17.90;83.70
15930;DHT22;8064;51.142;4.780;2023-04-08T14:14:14;17.70;83.20
15930;DHT22;8064;51.142;4.780;2023-04-08T14:16:40;17.70;83.20
15930;DHT22;8064;51.142;4.780;2023-04-08T14:19:07;17.70;82.90
15930;DHT22;8064;51.142;4.780;2023-04-08T14:21:33;17.80;82.60
15930;DHT22;8064;51.142;4.780;2023-04-08T14:23:58;17.80;81.80
15930;DHT22;8064;51.142;4.780;2023-04-08T14:26:24;17.90;81.40
15930;DHT22;8064;51.142;4.780;2023-04-08T14:28:50;17.90;80.70
15930;DHT22;8064;51.142;4.780;2023-04-08T14:31:16;18.00;80.30
15930;DHT22;8064;51.142;4.780;2023-04-08T14:33:42;18.00;79.20
15930;DHT22;8064;51.142;4.780;2023-04-08T14:36:08;18.00;78.30
15930;DHT22;8064;51.142;4.780;2023-04-08T14:38:35;18.00;78.00
15930;DHT22;8064;51.142;4.780;2023-04-08T14:41:01;18.00;77.30
15930;DHT22;8064;51.142;4.780;2023-04-08T14:43:27;18.00;77.40
15930;DHT22;8064;51.142;4.780;2023-04-08T14:45:53;18.00;77.80
15930;DHT22;8064;51.142;4.780;2023-04-08T14:48:18;18.00;77.90
15930;DHT22;8064;51.142;4.780;2023-04-08T14:50:44;18.00;77.30
15930;DHT22;8064;51.142;4.780;2023-04-08T14:53:10;17.90;76.80
15930;DHT22;8064;51.142;4.780;2023-04-08T14:55:36;17.90;77.00
15930;DHT22;8064;51.142;4.780;2023-04-08T14:58:03;17.80;76.00
15930;DHT22;8064;51.142;4.780;2023-04-08T15:00:30;17.80;75.80
15930;DHT22;8064;51.142;4.780;2023-04-08T15:02:55;17.80;76.60
15930;DHT22;8064;51.142;4.780;2023-04-08T15:05:21;17.80;76.10
15930;DHT22;8064;51.142;4.780;2023-04-08T15:07:47;17.80;75.50
15930;DHT22;8064;51.142;4.780;2023-04-08T15:10:13;17.70;74.80
15930;DHT22;8064;51.142;4.780;2023-04-08T15:12:39;17.70;75.10
15930;DHT22;8064;51.142;4.780;2023-04-08T15:15:06;17.60;75.80
15930;DHT22;8064;51.142;4.780;2023-04-08T15:17:31;17.60;75.80
15930;DHT22;8064;51.142;4.780;2023-04-08T15:19:58;17.60;75.50
15930;DHT22;8064;51.142;4.780;2023-04-08T15:22:24;17.70;75.20
15930;DHT22;8064;51.142;4.780;2023-04-08T15:24:50;17.70;74.90
15930;DHT22;8064;51.142;4.780;2023-04-08T15:27:16;17.70;74.40
15930;DHT22;8064;51.142;4.780;2023-04-08T15:29:41;17.70;74.20
15930;DHT22;8064;51.142;4.780;2023-04-08T15:32:07;17.70;74.40
15930;DHT22;8064;51.142;4.780;2023-04-08T15:34:33;17.70;74.80
15930;DHT22;8064;51.142;4.780;2023-04-08T15:36:59;17.70;75.20
15930;DHT22;8064;51.142;4.780;2023-04-08T15:39:26;17.70;75.50
15930;DHT22;8064;51.142;4.780;2023-04-08T15:41:52;17.70;75.60
15930;DHT22;8064;51.142;4.780;2023-04-08T15:44:18;17.70;76.20
15930;DHT22;8064;51.142;4.780;2023-04-08T15:46:44;17.70;76.50
15930;DHT22;8064;51.142;4.780;2023-04-08T15:49:09;17.60;76.60
15930;DHT22;8064;51.142;4.780;2023-04-08T15:51:35;17.50;76.90
15930;DHT22;8064;51.142;4.780;2023-04-08T15:54:01;17.50;77.10
15930;DHT22;8064;51.142;4.780;2023-04-08T15:56:27;17.50;77.00
15930;DHT22;8064;51.142;4.780;2023-04-08T15:58:54;17.40;77.30
15930;DHT22;8064;51.142;4.780;2023-04-08T16:01:21;17.50;77.00
15930;DHT22;8064;51.142;4.780;2023-04-08T16:03:47;17.50;76.70
15930;DHT22;8064;51.142;4.780;2023-04-08T16:06:13;17.50;76.20
15930;DHT22;8064;51.142;4.780;2023-04-08T16:08:39;17.60;75.70
15930;DHT22;8064;51.142;4.780;2023-04-08T16:11:05;17.60;74.90
15930;DHT22;8064;51.142;4.780;2023-04-08T16:13:33;17.60;74.20
15930;DHT22;8064;51.142;4.780;2023-04-08T16:16:17;17.60;73.90
15930;DHT22;8064;51.142;4.780;2023-04-08T16:18:44;17.60;73.60